Terminal Aerodrome Forecast
Issued by NWS Sioux Falls, SD

Home | Current Version | Previous Version | Graphics & Text | Print | Product List | Glossary Off
Versions: 1 2 3 4 5 6 7 8 9 10 11 12 13 14 15 16 17 18 19 20

609
FTUS43 KFSD 221720
TAFFSD
TAF
KFSD 221720Z 2218/2318 30011G16KT P6SM FEW200
     FM230430 01011KT P6SM BKN015
     FM231300 04009KT P6SM OVC008
     FM231600 05011KT P6SM OVC010=

USA.gov is the U.S. government's official web portal to all federal, state and local government web resources and services.